Terminal Aerodrome Forecast
Issued by NWS

Home | Current Version | Previous Version | Text Only | Print | Product List | Glossary On
Versions: 1 2 3 4 5 6 7 8 9 10 11 12 13 14 15 16 17
732
FTPA31 PHFO 200538
TAFHTO
TAF
PHTO 200538Z 2006/2106 24005KT P6SM VCSH SCT025 BKN045
     FM201200 24005KT 3SM SHRA BR BKN025
     FM202100 06008KT P6SM VCSH SCT025 BKN045
     FM210000 06008KT P6SM FEW025 SCT045
     FM210500 24005KT P6SM VCSH SCT025 SCT045=

USA.gov is the U.S. government's official web portal to all federal, state and local government web resources and services.